Terminal Aerodrome Forecast
Issued by NWS

Home | Current Version | Previous Version | Text Only | Print | Product List | Glossary On
Versions: 1 2 3 4 5 6 7 8 9 10 11 12 13 14 15 16 17 18 19 20 21
072
FTUS42 KFFC 170531
TAFRYY
TAF
KRYY 170531Z 1706/1806 14006KT P6SM SCT020 SCT050
     FM170800 12003KT P6SM SCT010 BKN050
     FM171400 20005KT P6SM BKN020
     FM171900 20010KT P6SM BKN030 BKN200
     FM180000 22004KT P6SM FEW030 SCT080 BKN200=

USA.gov is the U.S. government's official web portal to all federal, state and local government web resources and services.